sensor_id;sensor_type;location;lat;lon;timestamp;temperature;humidity
53776;DHT22;44276;49.534;6.378;2022-10-29T00:00:27;10.80;99.90
53776;DHT22;44276;49.534;6.378;2022-10-29T00:02:56;10.70;99.90
53776;DHT22;44276;49.534;6.378;2022-10-29T00:05:25;10.60;99.90
53776;DHT22;44276;49.534;6.378;2022-10-29T00:07:55;10.50;99.90
53776;DHT22;44276;49.534;6.378;2022-10-29T00:10:25;10.60;99.90
53776;DHT22;44276;49.534;6.378;2022-10-29T00:12:55;10.60;99.90
53776;DHT22;44276;49.534;6.378;2022-10-29T00:15:28;10.60;99.90
53776;DHT22;44276;49.534;6.378;2022-10-29T00:17:57;10.60;99.90
53776;DHT22;44276;49.534;6.378;2022-10-29T00:20:28;10.70;99.90
53776;DHT22;44276;49.534;6.378;2022-10-29T00:23:00;10.50;99.90
53776;DHT22;44276;49.534;6.378;2022-10-29T00:25:32;10.50;99.90
53776;DHT22;44276;49.534;6.378;2022-10-29T00:28:01;10.40;99.90
53776;DHT22;44276;49.534;6.378;2022-10-29T00:30:35;10.50;99.90
53776;DHT22;44276;49.534;6.378;2022-10-29T00:33:05;10.40;99.90
53776;DHT22;44276;49.534;6.378;2022-10-29T00:35:55;10.40;99.90
53776;DHT22;44276;49.534;6.378;2022-10-29T00:38:30;10.20;99.90
53776;DHT22;44276;49.534;6.378;2022-10-29T00:41:43;10.30;99.90
53776;DHT22;44276;49.534;6.378;2022-10-29T00:44:30;10.40;99.90
53776;DHT22;44276;49.534;6.378;2022-10-29T00:47:16;10.40;99.90
53776;DHT22;44276;49.534;6.378;2022-10-29T00:49:54;10.40;99.90
53776;DHT22;44276;49.534;6.378;2022-10-29T00:52:49;10.60;99.90
53776;DHT22;44276;49.534;6.378;2022-10-29T00:55:20;10.70;99.90
53776;DHT22;44276;49.534;6.378;2022-10-29T00:57:55;10.70;99.90
53776;DHT22;44276;49.534;6.378;2022-10-29T01:01:04;10.60;99.90
53776;DHT22;44276;49.534;6.378;2022-10-29T01:10:53;10.80;99.90
53776;DHT22;44276;49.534;6.378;2022-10-29T01:14:34;10.80;99.90
53776;DHT22;44276;49.534;6.378;2022-10-29T01:17:57;10.80;99.90
53776;DHT22;44276;49.534;6.378;2022-10-29T01:28:05;10.90;99.90
53776;DHT22;44276;49.534;6.378;2022-10-29T01:34:12;11.00;99.90
53776;DHT22;44276;49.534;6.378;2022-10-29T01:36:52;11.00;99.90
53776;DHT22;44276;49.534;6.378;2022-10-29T01:39:30;11.00;99.90
53776;DHT22;44276;49.534;6.378;2022-10-29T01:42:10;11.00;99.90
53776;DHT22;44276;49.534;6.378;2022-10-29T01:44:44;10.90;99.90
53776;DHT22;44276;49.534;6.378;2022-10-29T01:47:18;11.00;99.90
53776;DHT22;44276;49.534;6.378;2022-10-29T01:49:52;11.10;99.90
53776;DHT22;44276;49.534;6.378;2022-10-29T01:52:26;11.10;99.90
53776;DHT22;44276;49.534;6.378;2022-10-29T01:54:58;11.10;99.90
53776;DHT22;44276;49.534;6.378;2022-10-29T01:57:28;11.10;99.90
53776;DHT22;44276;49.534;6.378;2022-10-29T02:00:02;11.10;99.90
53776;DHT22;44276;49.534;6.378;2022-10-29T02:02:42;11.20;99.90
53776;DHT22;44276;49.534;6.378;2022-10-29T02:05:27;11.20;99.90
53776;DHT22;44276;49.534;6.378;2022-10-29T02:08:07;11.30;99.90
53776;DHT22;44276;49.534;6.378;2022-10-29T02:10:49;11.30;99.90
53776;DHT22;44276;49.534;6.378;2022-10-29T02:13:27;11.40;99.90
53776;DHT22;44276;49.534;6.378;2022-10-29T02:15:59;11.40;99.90
53776;DHT22;44276;49.534;6.378;2022-10-29T02:18:39;11.40;99.90
53776;DHT22;44276;49.534;6.378;2022-10-29T02:21:10;11.40;99.90
53776;DHT22;44276;49.534;6.378;2022-10-29T02:23:38;11.40;99.90
53776;DHT22;44276;49.534;6.378;2022-10-29T02:26:06;11.40;99.90
53776;DHT22;44276;49.534;6.378;2022-10-29T02:28:34;11.50;99.90
53776;DHT22;44276;49.534;6.378;2022-10-29T02:31:02;11.60;99.90
53776;DHT22;44276;49.534;6.378;2022-10-29T02:33:31;11.70;99.90
53776;DHT22;44276;49.534;6.378;2022-10-29T02:35:59;11.70;99.90
53776;DHT22;44276;49.534;6.378;2022-10-29T02:38:28;11.70;99.90
53776;DHT22;44276;49.534;6.378;2022-10-29T02:40:56;11.70;99.90
53776;DHT22;44276;49.534;6.378;2022-10-29T02:43:24;11.70;99.90
53776;DHT22;44276;49.534;6.378;2022-10-29T02:46:11;11.70;99.90
53776;DHT22;44276;49.534;6.378;2022-10-29T02:48:40;11.80;99.90
53776;DHT22;44276;49.534;6.378;2022-10-29T02:51:09;11.80;99.90
53776;DHT22;44276;49.534;6.378;2022-10-29T02:53:39;11.90;99.90
53776;DHT22;44276;49.534;6.378;2022-10-29T02:56:08;12.00;99.90
53776;DHT22;44276;49.534;6.378;2022-10-29T02:58:36;12.10;99.90
53776;DHT22;44276;49.534;6.378;2022-10-29T03:01:05;12.10;99.90
53776;DHT22;44276;49.534;6.378;2022-10-29T03:03:33;12.00;99.90
53776;DHT22;44276;49.534;6.378;2022-10-29T03:06:02;12.00;99.90
53776;DHT22;44276;49.534;6.378;2022-10-29T03:08:30;12.00;99.90
53776;DHT22;44276;49.534;6.378;2022-10-29T03:11:00;12.00;99.90
53776;DHT22;44276;49.534;6.378;2022-10-29T03:13:28;12.10;99.90
53776;DHT22;44276;49.534;6.378;2022-10-29T03:15:56;12.10;99.90
53776;DHT22;44276;49.534;6.378;2022-10-29T03:18:24;12.10;99.90
53776;DHT22;44276;49.534;6.378;2022-10-29T03:20:52;12.10;99.90
53776;DHT22;44276;49.534;6.378;2022-10-29T03:23:20;12.10;99.90
53776;DHT22;44276;49.534;6.378;2022-10-29T03:25:49;12.10;99.90
53776;DHT22;44276;49.534;6.378;2022-10-29T03:28:24;12.10;99.90
53776;DHT22;44276;49.534;6.378;2022-10-29T03:30:56;12.10;99.90
53776;DHT22;44276;49.534;6.378;2022-10-29T03:33:25;12.10;99.90
53776;DHT22;44276;49.534;6.378;2022-10-29T03:35:57;12.10;99.90
53776;DHT22;44276;49.534;6.378;2022-10-29T03:38:26;12.20;99.90
53776;DHT22;44276;49.534;6.378;2022-10-29T03:40:55;12.10;99.90
53776;DHT22;44276;49.534;6.378;2022-10-29T03:43:25;12.10;99.90
53776;DHT22;44276;49.534;6.378;2022-10-29T03:45:54;12.10;99.90
53776;DHT22;44276;49.534;6.378;2022-10-29T03:48:24;12.10;99.90
53776;DHT22;44276;49.534;6.378;2022-10-29T03:50:54;12.00;99.90
53776;DHT22;44276;49.534;6.378;2022-10-29T03:53:23;12.00;99.90
53776;DHT22;44276;49.534;6.378;2022-10-29T03:55:53;11.90;99.90
53776;DHT22;44276;49.534;6.378;2022-10-29T03:58:24;11.80;99.90
53776;DHT22;44276;49.534;6.378;2022-10-29T04:00:54;11.80;99.90
53776;DHT22;44276;49.534;6.378;2022-10-29T04:03:24;11.80;99.90
53776;DHT22;44276;49.534;6.378;2022-10-29T04:05:54;11.90;99.90
53776;DHT22;44276;49.534;6.378;2022-10-29T04:08:23;11.80;99.90
53776;DHT22;44276;49.534;6.378;2022-10-29T04:10:52;11.80;99.90
53776;DHT22;44276;49.534;6.378;2022-10-29T04:13:20;11.80;99.90
53776;DHT22;44276;49.534;6.378;2022-10-29T04:15:53;11.90;99.90
53776;DHT22;44276;49.534;6.378;2022-10-29T04:18:23;11.90;99.90
53776;DHT22;44276;49.534;6.378;2022-10-29T04:20:51;11.90;99.90
53776;DHT22;44276;49.534;6.378;2022-10-29T04:23:40;11.90;99.90
53776;DHT22;44276;49.534;6.378;2022-10-29T04:26:28;11.90;99.90
53776;DHT22;44276;49.534;6.378;2022-10-29T04:29:16;11.80;99.90
53776;DHT22;44276;49.534;6.378;2022-10-29T04:31:46;11.80;99.90
53776;DHT22;44276;49.534;6.378;2022-10-29T04:34:14;11.70;99.90
53776;DHT22;44276;49.534;6.378;2022-10-29T04:36:42;11.60;99.90
53776;DHT22;44276;49.534;6.378;2022-10-29T04:39:10;11.60;99.90
53776;DHT22;44276;49.534;6.378;2022-10-29T04:41:38;11.50;99.90
53776;DHT22;44276;49.534;6.378;2022-10-29T04:44:06;11.60;99.90
53776;DHT22;44276;49.534;6.378;2022-10-29T04:46:35;11.60;99.90
53776;DHT22;44276;49.534;6.378;2022-10-29T04:49:04;11.50;99.90
53776;DHT22;44276;49.534;6.378;2022-10-29T04:51:32;11.40;99.90
53776;DHT22;44276;49.534;6.378;2022-10-29T04:54:00;11.40;99.90
53776;DHT22;44276;49.534;6.378;2022-10-29T04:56:29;11.40;99.90
53776;DHT22;44276;49.534;6.378;2022-10-29T04:58:57;11.30;99.90
53776;DHT22;44276;49.534;6.378;2022-10-29T05:01:25;11.30;99.90
53776;DHT22;44276;49.534;6.378;2022-10-29T05:03:54;11.20;99.90
53776;DHT22;44276;49.534;6.378;2022-10-29T05:06:27;11.20;99.90
53776;DHT22;44276;49.534;6.378;2022-10-29T05:08:55;11.10;99.90
53776;DHT22;44276;49.534;6.378;2022-10-29T05:11:23;11.10;99.90
53776;DHT22;44276;49.534;6.378;2022-10-29T05:13:51;11.00;99.90
53776;DHT22;44276;49.534;6.378;2022-10-29T05:16:19;11.00;99.90
53776;DHT22;44276;49.534;6.378;2022-10-29T05:18:47;10.90;99.90
53776;DHT22;44276;49.534;6.378;2022-10-29T05:21:15;10.90;99.90
53776;DHT22;44276;49.534;6.378;2022-10-29T05:23:45;10.90;99.90
53776;DHT22;44276;49.534;6.378;2022-10-29T05:26:13;10.90;99.90
53776;DHT22;44276;49.534;6.378;2022-10-29T05:28:41;10.90;99.90
53776;DHT22;44276;49.534;6.378;2022-10-29T05:31:09;10.90;99.90
53776;DHT22;44276;49.534;6.378;2022-10-29T05:33:37;11.00;99.90
53776;DHT22;44276;49.534;6.378;2022-10-29T05:36:06;11.00;99.90
53776;DHT22;44276;49.534;6.378;2022-10-29T05:38:34;11.00;99.90
53776;DHT22;44276;49.534;6.378;2022-10-29T05:41:04;11.00;99.90
53776;DHT22;44276;49.534;6.378;2022-10-29T05:43:33;11.00;99.90
53776;DHT22;44276;49.534;6.378;2022-10-29T05:46:01;11.00;99.90
53776;DHT22;44276;49.534;6.378;2022-10-29T05:48:30;11.10;99.90
53776;DHT22;44276;49.534;6.378;2022-10-29T05:50:58;11.10;99.90
53776;DHT22;44276;49.534;6.378;2022-10-29T05:53:26;11.10;99.90
53776;DHT22;44276;49.534;6.378;2022-10-29T05:55:54;11.20;99.90
53776;DHT22;44276;49.534;6.378;2022-10-29T05:58:24;11.20;99.90
53776;DHT22;44276;49.534;6.378;2022-10-29T06:00:52;11.20;99.90
53776;DHT22;44276;49.534;6.378;2022-10-29T06:03:21;11.20;99.90
53776;DHT22;44276;49.534;6.378;2022-10-29T06:05:50;11.20;99.90
53776;DHT22;44276;49.534;6.378;2022-10-29T06:08:19;11.10;99.90
53776;DHT22;44276;49.534;6.378;2022-10-29T06:10:47;11.00;99.90
53776;DHT22;44276;49.534;6.378;2022-10-29T06:13:16;10.90;99.90
53776;DHT22;44276;49.534;6.378;2022-10-29T06:15:48;10.80;99.90
53776;DHT22;44276;49.534;6.378;2022-10-29T06:18:17;10.70;99.90
53776;DHT22;44276;49.534;6.378;2022-10-29T06:20:45;10.70;99.90
53776;DHT22;44276;49.534;6.378;2022-10-29T06:23:13;10.70;99.90
53776;DHT22;44276;49.534;6.378;2022-10-29T06:25:41;10.70;99.90
53776;DHT22;44276;49.534;6.378;2022-10-29T06:28:11;10.70;99.90
53776;DHT22;44276;49.534;6.378;2022-10-29T06:30:46;10.70;99.90
53776;DHT22;44276;49.534;6.378;2022-10-29T06:33:16;10.80;99.90
53776;DHT22;44276;49.534;6.378;2022-10-29T06:35:46;10.80;99.90
53776;DHT22;44276;49.534;6.378;2022-10-29T06:38:14;10.90;99.90
53776;DHT22;44276;49.534;6.378;2022-10-29T06:40:50;11.10;99.90
53776;DHT22;44276;49.534;6.378;2022-10-29T06:43:20;11.20;99.90
53776;DHT22;44276;49.534;6.378;2022-10-29T06:45:49;11.30;99.90
53776;DHT22;44276;49.534;6.378;2022-10-29T06:48:18;11.40;99.90
53776;DHT22;44276;49.534;6.378;2022-10-29T06:50:48;11.40;99.90
53776;DHT22;44276;49.534;6.378;2022-10-29T06:53:16;11.40;99.90
53776;DHT22;44276;49.534;6.378;2022-10-29T06:55:45;11.50;99.90
53776;DHT22;44276;49.534;6.378;2022-10-29T06:58:15;11.50;99.90
53776;DHT22;44276;49.534;6.378;2022-10-29T07:00:45;11.70;99.90
53776;DHT22;44276;49.534;6.378;2022-10-29T07:03:18;11.70;99.90
53776;DHT22;44276;49.534;6.378;2022-10-29T07:05:53;11.90;99.90
53776;DHT22;44276;49.534;6.378;2022-10-29T07:08:22;12.00;99.90
53776;DHT22;44276;49.534;6.378;2022-10-29T07:10:51;12.20;99.90
53776;DHT22;44276;49.534;6.378;2022-10-29T07:13:20;12.30;99.90
53776;DHT22;44276;49.534;6.378;2022-10-29T07:15:48;12.50;99.90
53776;DHT22;44276;49.534;6.378;2022-10-29T07:18:17;12.70;99.90
53776;DHT22;44276;49.534;6.378;2022-10-29T07:20:45;12.90;99.90
53776;DHT22;44276;49.534;6.378;2022-10-29T07:23:13;12.90;99.90
53776;DHT22;44276;49.534;6.378;2022-10-29T07:25:42;13.00;99.90
53776;DHT22;44276;49.534;6.378;2022-10-29T07:28:12;13.00;99.90
53776;DHT22;44276;49.534;6.378;2022-10-29T07:30:42;13.00;99.90
53776;DHT22;44276;49.534;6.378;2022-10-29T07:33:11;13.20;99.90
53776;DHT22;44276;49.534;6.378;2022-10-29T07:35:41;13.40;99.90
53776;DHT22;44276;49.534;6.378;2022-10-29T07:38:11;13.70;99.90
53776;DHT22;44276;49.534;6.378;2022-10-29T07:40:45;13.90;99.90
53776;DHT22;44276;49.534;6.378;2022-10-29T07:43:15;14.00;99.90
53776;DHT22;44276;49.534;6.378;2022-10-29T07:45:44;14.20;99.90
53776;DHT22;44276;49.534;6.378;2022-10-29T07:48:16;14.40;99.90
53776;DHT22;44276;49.534;6.378;2022-10-29T07:50:46;14.50;99.90
53776;DHT22;44276;49.534;6.378;2022-10-29T07:53:15;14.40;99.90
53776;DHT22;44276;49.534;6.378;2022-10-29T07:55:47;14.50;99.90
53776;DHT22;44276;49.534;6.378;2022-10-29T07:58:19;14.50;99.90
53776;DHT22;44276;49.534;6.378;2022-10-29T08:00:47;14.60;99.90
53776;DHT22;44276;49.534;6.378;2022-10-29T08:03:16;14.70;99.90
53776;DHT22;44276;49.534;6.378;2022-10-29T08:05:46;14.90;99.90
53776;DHT22;44276;49.534;6.378;2022-10-29T08:08:22;15.10;99.90
53776;DHT22;44276;49.534;6.378;2022-10-29T08:10:50;15.50;99.90
53776;DHT22;44276;49.534;6.378;2022-10-29T08:13:18;15.90;99.90
53776;DHT22;44276;49.534;6.378;2022-10-29T08:15:46;16.10;99.90
53776;DHT22;44276;49.534;6.378;2022-10-29T08:18:16;16.50;99.90
53776;DHT22;44276;49.534;6.378;2022-10-29T08:20:46;17.00;99.90
53776;DHT22;44276;49.534;6.378;2022-10-29T08:23:14;17.80;99.90
53776;DHT22;44276;49.534;6.378;2022-10-29T08:25:43;18.70;99.90
53776;DHT22;44276;49.534;6.378;2022-10-29T08:28:13;19.70;99.90
53776;DHT22;44276;49.534;6.378;2022-10-29T08:30:42;20.20;80.10
53776;DHT22;44276;49.534;6.378;2022-10-29T08:33:15;20.50;80.30
53776;DHT22;44276;49.534;6.378;2022-10-29T08:35:43;20.60;83.10
53776;DHT22;44276;49.534;6.378;2022-10-29T08:38:13;20.70;99.90
53776;DHT22;44276;49.534;6.378;2022-10-29T08:40:53;21.20;74.80
53776;DHT22;44276;49.534;6.378;2022-10-29T08:43:53;21.10;61.50
53776;DHT22;44276;49.534;6.378;2022-10-29T08:46:39;20.40;71.40
53776;DHT22;44276;49.534;6.378;2022-10-29T08:49:16;20.30;96.00
53776;DHT22;44276;49.534;6.378;2022-10-29T08:51:53;20.00;67.70
53776;DHT22;44276;49.534;6.378;2022-10-29T08:54:30;19.70;82.80
53776;DHT22;44276;49.534;6.378;2022-10-29T08:57:06;19.90;74.10
53776;DHT22;44276;49.534;6.378;2022-10-29T08:59:45;20.00;86.60
53776;DHT22;44276;49.534;6.378;2022-10-29T09:02:25;19.60;90.30
53776;DHT22;44276;49.534;6.378;2022-10-29T09:04:56;19.30;89.00
53776;DHT22;44276;49.534;6.378;2022-10-29T09:07:35;19.20;97.90
53776;DHT22;44276;49.534;6.378;2022-10-29T09:10:25;19.40;94.30
53776;DHT22;44276;49.534;6.378;2022-10-29T09:13:15;19.40;94.60
53776;DHT22;44276;49.534;6.378;2022-10-29T09:16:13;19.30;93.80
53776;DHT22;44276;49.534;6.378;2022-10-29T09:19:14;19.30;92.00
53776;DHT22;44276;49.534;6.378;2022-10-29T09:21:59;19.20;90.70
53776;DHT22;44276;49.534;6.378;2022-10-29T09:24:45;19.50;91.80
53776;DHT22;44276;49.534;6.378;2022-10-29T09:27:23;19.60;82.90
53776;DHT22;44276;49.534;6.378;2022-10-29T09:30:05;19.70;80.20
53776;DHT22;44276;49.534;6.378;2022-10-29T09:32:41;19.80;69.90
53776;DHT22;44276;49.534;6.378;2022-10-29T09:35:17;20.10;74.70
53776;DHT22;44276;49.534;6.378;2022-10-29T09:37:48;20.40;64.10
53776;DHT22;44276;49.534;6.378;2022-10-29T09:40:29;20.40;61.40
53776;DHT22;44276;49.534;6.378;2022-10-29T09:43:06;20.90;58.20
53776;DHT22;44276;49.534;6.378;2022-10-29T09:45:51;21.60;50.40
53776;DHT22;44276;49.534;6.378;2022-10-29T09:48:33;22.50;44.90
53776;DHT22;44276;49.534;6.378;2022-10-29T09:51:18;24.00;43.50
53776;DHT22;44276;49.534;6.378;2022-10-29T09:53:53;25.90;34.50
53776;DHT22;44276;49.534;6.378;2022-10-29T09:56:25;26.90;29.20
53776;DHT22;44276;49.534;6.378;2022-10-29T09:59:00;26.90;28.80
53776;DHT22;44276;49.534;6.378;2022-10-29T10:01:39;26.40;29.50
53776;DHT22;44276;49.534;6.378;2022-10-29T10:04:18;26.40;29.00
53776;DHT22;44276;49.534;6.378;2022-10-29T10:07:02;25.90;29.40
53776;DHT22;44276;49.534;6.378;2022-10-29T10:09:49;25.40;30.10
53776;DHT22;44276;49.534;6.378;2022-10-29T10:12:19;25.60;30.70
53776;DHT22;44276;49.534;6.378;2022-10-29T10:15:05;25.80;29.20
53776;DHT22;44276;49.534;6.378;2022-10-29T10:17:58;25.60;28.00
53776;DHT22;44276;49.534;6.378;2022-10-29T10:20:31;25.40;28.00
53776;DHT22;44276;49.534;6.378;2022-10-29T10:23:21;25.10;28.50
53776;DHT22;44276;49.534;6.378;2022-10-29T10:25:52;25.40;28.00
53776;DHT22;44276;49.534;6.378;2022-10-29T10:28:31;25.60;28.30
53776;DHT22;44276;49.534;6.378;2022-10-29T10:31:20;25.80;28.80
53776;DHT22;44276;49.534;6.378;2022-10-29T10:33:50;26.10;27.70
53776;DHT22;44276;49.534;6.378;2022-10-29T10:36:22;26.20;27.60
53776;DHT22;44276;49.534;6.378;2022-10-29T10:38:54;26.20;28.90
53776;DHT22;44276;49.534;6.378;2022-10-29T10:41:28;26.10;29.50
53776;DHT22;44276;49.534;6.378;2022-10-29T10:44:03;26.10;29.20
53776;DHT22;44276;49.534;6.378;2022-10-29T10:46:40;26.30;29.70
53776;DHT22;44276;49.534;6.378;2022-10-29T10:49:13;26.40;28.60
53776;DHT22;44276;49.534;6.378;2022-10-29T10:51:47;26.80;27.80
53776;DHT22;44276;49.534;6.378;2022-10-29T10:54:35;26.80;28.10
53776;DHT22;44276;49.534;6.378;2022-10-29T10:57:21;26.60;25.50
53776;DHT22;44276;49.534;6.378;2022-10-29T11:07:28;26.60;25.10
53776;DHT22;44276;49.534;6.378;2022-10-29T11:10:03;27.00;26.20
53776;DHT22;44276;49.534;6.378;2022-10-29T11:12:40;27.40;23.80
53776;DHT22;44276;49.534;6.378;2022-10-29T11:15:15;27.40;25.00
53776;DHT22;44276;49.534;6.378;2022-10-29T11:17:52;27.10;24.60
53776;DHT22;44276;49.534;6.378;2022-10-29T11:20:25;26.90;25.10
53776;DHT22;44276;49.534;6.378;2022-10-29T11:23:15;26.50;25.50
53776;DHT22;44276;49.534;6.378;2022-10-29T11:25:57;26.40;24.40
53776;DHT22;44276;49.534;6.378;2022-10-29T11:28:38;26.60;23.00
53776;DHT22;44276;49.534;6.378;2022-10-29T11:31:16;26.70;24.30
53776;DHT22;44276;49.534;6.378;2022-10-29T11:33:57;27.20;21.90
53776;DHT22;44276;49.534;6.378;2022-10-29T11:36:38;27.60;22.90
53776;DHT22;44276;49.534;6.378;2022-10-29T11:39:16;27.60;22.60
53776;DHT22;44276;49.534;6.378;2022-10-29T11:41:55;27.60;21.20
53776;DHT22;44276;49.534;6.378;2022-10-29T11:44:25;27.80;20.90
53776;DHT22;44276;49.534;6.378;2022-10-29T11:47:05;27.70;20.00
53776;DHT22;44276;49.534;6.378;2022-10-29T11:49:57;27.40;18.70
53776;DHT22;44276;49.534;6.378;2022-10-29T11:52:46;27.40;21.10
53776;DHT22;44276;49.534;6.378;2022-10-29T11:55:32;27.40;19.80
53776;DHT22;44276;49.534;6.378;2022-10-29T11:58:11;27.10;19.80
53776;DHT22;44276;49.534;6.378;2022-10-29T12:00:53;26.70;21.20
53776;DHT22;44276;49.534;6.378;2022-10-29T12:03:39;26.30;22.90
53776;DHT22;44276;49.534;6.378;2022-10-29T12:06:23;25.80;22.70
53776;DHT22;44276;49.534;6.378;2022-10-29T12:09:22;25.50;22.60
53776;DHT22;44276;49.534;6.378;2022-10-29T12:12:12;25.40;23.90
53776;DHT22;44276;49.534;6.378;2022-10-29T12:14:47;25.30;23.50
53776;DHT22;44276;49.534;6.378;2022-10-29T12:17:24;25.40;23.50
53776;DHT22;44276;49.534;6.378;2022-10-29T12:20:03;25.40;22.70
53776;DHT22;44276;49.534;6.378;2022-10-29T12:22:44;25.40;21.80
53776;DHT22;44276;49.534;6.378;2022-10-29T12:25:35;25.20;22.30
53776;DHT22;44276;49.534;6.378;2022-10-29T12:28:17;25.30;22.60
53776;DHT22;44276;49.534;6.378;2022-10-29T12:31:03;25.50;23.90
53776;DHT22;44276;49.534;6.378;2022-10-29T12:33:45;25.60;22.80
53776;DHT22;44276;49.534;6.378;2022-10-29T12:36:23;25.70;23.60
53776;DHT22;44276;49.534;6.378;2022-10-29T12:39:00;25.60;22.60
53776;DHT22;44276;49.534;6.378;2022-10-29T12:41:33;25.60;23.60
53776;DHT22;44276;49.534;6.378;2022-10-29T12:44:18;25.80;22.80
53776;DHT22;44276;49.534;6.378;2022-10-29T12:46:58;25.60;22.90
53776;DHT22;44276;49.534;6.378;2022-10-29T12:49:45;25.40;24.10
53776;DHT22;44276;49.534;6.378;2022-10-29T12:52:27;25.40;23.10
53776;DHT22;44276;49.534;6.378;2022-10-29T12:55:04;25.40;23.60
53776;DHT22;44276;49.534;6.378;2022-10-29T12:57:37;25.30;23.20
53776;DHT22;44276;49.534;6.378;2022-10-29T13:00:46;25.00;24.40
53776;DHT22;44276;49.534;6.378;2022-10-29T13:03:56;24.90;24.60
53776;DHT22;44276;49.534;6.378;2022-10-29T13:06:45;24.80;24.50
53776;DHT22;44276;49.534;6.378;2022-10-29T13:09:19;24.70;24.20
53776;DHT22;44276;49.534;6.378;2022-10-29T13:11:50;24.80;25.60
53776;DHT22;44276;49.534;6.378;2022-10-29T13:14:23;24.50;27.10
53776;DHT22;44276;49.534;6.378;2022-10-29T13:16:57;24.40;26.40
53776;DHT22;44276;49.534;6.378;2022-10-29T13:19:46;24.30;25.80
53776;DHT22;44276;49.534;6.378;2022-10-29T13:25:49;24.50;27.20
53776;DHT22;44276;49.534;6.378;2022-10-29T13:28:46;24.90;27.20
53776;DHT22;44276;49.534;6.378;2022-10-29T13:31:45;25.20;26.20
53776;DHT22;44276;49.534;6.378;2022-10-29T13:34:52;25.50;25.20
53776;DHT22;44276;49.534;6.378;2022-10-29T13:41:07;25.80;25.60
53776;DHT22;44276;49.534;6.378;2022-10-29T13:43:41;25.90;22.90
53776;DHT22;44276;49.534;6.378;2022-10-29T13:46:33;26.00;24.10
53776;DHT22;44276;49.534;6.378;2022-10-29T13:49:15;26.20;23.00
53776;DHT22;44276;49.534;6.378;2022-10-29T13:51:54;26.40;23.00
53776;DHT22;44276;49.534;6.378;2022-10-29T13:54:34;26.50;23.00
53776;DHT22;44276;49.534;6.378;2022-10-29T13:57:15;26.50;23.20
53776;DHT22;44276;49.534;6.378;2022-10-29T13:59:49;26.50;23.00
53776;DHT22;44276;49.534;6.378;2022-10-29T14:02:29;26.30;22.40
53776;DHT22;44276;49.534;6.378;2022-10-29T14:05:13;26.10;23.80
53776;DHT22;44276;49.534;6.378;2022-10-29T14:07:51;26.00;25.40
53776;DHT22;44276;49.534;6.378;2022-10-29T14:10:29;25.90;24.60
53776;DHT22;44276;49.534;6.378;2022-10-29T14:13:08;25.70;23.10
53776;DHT22;44276;49.534;6.378;2022-10-29T14:15:59;25.70;25.10
53776;DHT22;44276;49.534;6.378;2022-10-29T14:18:31;25.60;24.30
53776;DHT22;44276;49.534;6.378;2022-10-29T14:21:01;25.50;25.30
53776;DHT22;44276;49.534;6.378;2022-10-29T14:23:32;25.50;25.40
53776;DHT22;44276;49.534;6.378;2022-10-29T14:26:01;25.40;25.40
53776;DHT22;44276;49.534;6.378;2022-10-29T14:28:31;25.20;26.10
53776;DHT22;44276;49.534;6.378;2022-10-29T14:31:05;24.90;25.70
53776;DHT22;44276;49.534;6.378;2022-10-29T14:33:40;24.80;27.50
53776;DHT22;44276;49.534;6.378;2022-10-29T14:36:15;24.80;27.10
53776;DHT22;44276;49.534;6.378;2022-10-29T14:38:53;24.90;27.10
53776;DHT22;44276;49.534;6.378;2022-10-29T14:41:24;25.10;25.70
53776;DHT22;44276;49.534;6.378;2022-10-29T14:44:01;25.50;26.30
53776;DHT22;44276;49.534;6.378;2022-10-29T14:46:34;25.90;25.70
53776;DHT22;44276;49.534;6.378;2022-10-29T14:49:11;26.40;24.90
53776;DHT22;44276;49.534;6.378;2022-10-29T14:51:49;26.40;25.00
53776;DHT22;44276;49.534;6.378;2022-10-29T14:54:24;26.20;25.20
53776;DHT22;44276;49.534;6.378;2022-10-29T14:56:57;25.70;26.00
53776;DHT22;44276;49.534;6.378;2022-10-29T14:59:30;25.40;26.70
53776;DHT22;44276;49.534;6.378;2022-10-29T15:02:03;25.00;27.10
53776;DHT22;44276;49.534;6.378;2022-10-29T15:04:59;24.80;28.20
53776;DHT22;44276;49.534;6.378;2022-10-29T15:07:34;24.50;28.20
53776;DHT22;44276;49.534;6.378;2022-10-29T15:10:19;24.50;27.30
53776;DHT22;44276;49.534;6.378;2022-10-29T15:12:49;24.40;27.40
53776;DHT22;44276;49.534;6.378;2022-10-29T15:15:27;24.20;29.30
53776;DHT22;44276;49.534;6.378;2022-10-29T15:17:59;24.20;28.20
53776;DHT22;44276;49.534;6.378;2022-10-29T15:20:34;24.20;27.20
53776;DHT22;44276;49.534;6.378;2022-10-29T15:23:17;24.10;28.60
53776;DHT22;44276;49.534;6.378;2022-10-29T15:25:56;23.70;27.70
53776;DHT22;44276;49.534;6.378;2022-10-29T15:28:28;23.30;29.00
53776;DHT22;44276;49.534;6.378;2022-10-29T15:31:00;22.90;31.40
53776;DHT22;44276;49.534;6.378;2022-10-29T15:33:29;22.30;31.50
53776;DHT22;44276;49.534;6.378;2022-10-29T15:36:00;21.90;34.90
53776;DHT22;44276;49.534;6.378;2022-10-29T15:39:07;21.60;34.30
53776;DHT22;44276;49.534;6.378;2022-10-29T15:41:49;21.20;40.20
53776;DHT22;44276;49.534;6.378;2022-10-29T15:44:33;20.90;35.40
53776;DHT22;44276;49.534;6.378;2022-10-29T15:47:21;20.70;38.60
53776;DHT22;44276;49.534;6.378;2022-10-29T15:49:54;20.30;42.70
53776;DHT22;44276;49.534;6.378;2022-10-29T15:52:26;19.90;40.90
53776;DHT22;44276;49.534;6.378;2022-10-29T15:54:59;19.70;40.90
53776;DHT22;44276;49.534;6.378;2022-10-29T15:57:29;19.40;46.50
53776;DHT22;44276;49.534;6.378;2022-10-29T16:00:03;19.20;47.60
53776;DHT22;44276;49.534;6.378;2022-10-29T16:02:32;18.90;49.00
53776;DHT22;44276;49.534;6.378;2022-10-29T16:05:01;18.60;50.70
53776;DHT22;44276;49.534;6.378;2022-10-29T16:07:29;18.40;53.20
53776;DHT22;44276;49.534;6.378;2022-10-29T16:09:58;18.20;55.60
53776;DHT22;44276;49.534;6.378;2022-10-29T16:12:27;18.00;62.90
53776;DHT22;44276;49.534;6.378;2022-10-29T16:14:57;17.60;62.10
53776;DHT22;44276;49.534;6.378;2022-10-29T16:17:27;17.40;66.20
53776;DHT22;44276;49.534;6.378;2022-10-29T16:19:56;17.10;69.90
53776;DHT22;44276;49.534;6.378;2022-10-29T16:22:26;16.90;62.80
53776;DHT22;44276;49.534;6.378;2022-10-29T16:24:56;16.70;80.50
53776;DHT22;44276;49.534;6.378;2022-10-29T16:27:24;16.60;77.10
53776;DHT22;44276;49.534;6.378;2022-10-29T16:29:52;16.50;72.10
53776;DHT22;44276;49.534;6.378;2022-10-29T16:32:23;16.50;69.10
53776;DHT22;44276;49.534;6.378;2022-10-29T16:34:51;16.50;69.00
53776;DHT22;44276;49.534;6.378;2022-10-29T16:37:20;16.40;72.40
53776;DHT22;44276;49.534;6.378;2022-10-29T16:39:48;16.30;72.40
53776;DHT22;44276;49.534;6.378;2022-10-29T16:42:27;16.10;80.00
53776;DHT22;44276;49.534;6.378;2022-10-29T16:44:56;16.00;79.80
53776;DHT22;44276;49.534;6.378;2022-10-29T16:47:26;15.80;86.90
53776;DHT22;44276;49.534;6.378;2022-10-29T16:49:54;15.70;86.00
53776;DHT22;44276;49.534;6.378;2022-10-29T16:52:23;15.60;91.00